sensor_id;sensor_type;location;lat;lon;timestamp;P1;durP1;ratioP1;P2;durP2;ratioP2
29538;SDS011;16482;51.046;4.498;2023-12-29T00:00:53;5.32;;;2.22;;
29538;SDS011;16482;51.046;4.498;2023-12-29T00:03:28;7.82;;;2.10;;
29538;SDS011;16482;51.046;4.498;2023-12-29T00:05:54;6.13;;;2.15;;
29538;SDS011;16482;51.046;4.498;2023-12-29T00:08:20;4.03;;;1.80;;
29538;SDS011;16482;51.046;4.498;2023-12-29T00:10:56;5.53;;;1.83;;
29538;SDS011;16482;51.046;4.498;2023-12-29T00:13:22;4.47;;;1.83;;
29538;SDS011;16482;51.046;4.498;2023-12-29T00:15:52;5.07;;;2.20;;
29538;SDS011;16482;51.046;4.498;2023-12-29T00:18:21;5.00;;;2.22;;
29538;SDS011;16482;51.046;4.498;2023-12-29T00:20:50;3.95;;;1.75;;
29538;SDS011;16482;51.046;4.498;2023-12-29T00:23:26;6.00;;;2.10;;
29538;SDS011;16482;51.046;4.498;2023-12-29T00:25:55;5.70;;;2.10;;
29538;SDS011;16482;51.046;4.498;2023-12-29T00:28:30;5.35;;;2.08;;
29538;SDS011;16482;51.046;4.498;2023-12-29T00:30:58;4.90;;;1.77;;
29538;SDS011;16482;51.046;4.498;2023-12-29T00:33:35;4.32;;;1.55;;
29538;SDS011;16482;51.046;4.498;2023-12-29T00:36:19;4.25;;;1.80;;
29538;SDS011;16482;51.046;4.498;2023-12-29T00:38:47;6.05;;;1.90;;
29538;SDS011;16482;51.046;4.498;2023-12-29T00:41:20;5.00;;;1.85;;
29538;SDS011;16482;51.046;4.498;2023-12-29T00:43:56;5.30;;;1.83;;
29538;SDS011;16482;51.046;4.498;2023-12-29T00:46:22;4.50;;;1.88;;
29538;SDS011;16482;51.046;4.498;2023-12-29T00:48:51;5.53;;;2.35;;
29538;SDS011;16482;51.046;4.498;2023-12-29T00:51:27;6.05;;;1.90;;
29538;SDS011;16482;51.046;4.498;2023-12-29T00:54:03;7.25;;;2.08;;
29538;SDS011;16482;51.046;4.498;2023-12-29T00:56:28;5.22;;;2.05;;
29538;SDS011;16482;51.046;4.498;2023-12-29T00:58:57;4.60;;;1.80;;
29538;SDS011;16482;51.046;4.498;2023-12-29T01:01:36;4.00;;;1.95;;
29538;SDS011;16482;51.046;4.498;2023-12-29T01:04:12;5.20;;;1.90;;
29538;SDS011;16482;51.046;4.498;2023-12-29T01:06:38;4.63;;;1.90;;
29538;SDS011;16482;51.046;4.498;2023-12-29T01:09:07;5.65;;;2.08;;
29538;SDS011;16482;51.046;4.498;2023-12-29T01:11:42;5.05;;;1.73;;
29538;SDS011;16482;51.046;4.498;2023-12-29T01:14:18;5.90;;;1.90;;
29538;SDS011;16482;51.046;4.498;2023-12-29T01:16:46;4.45;;;1.67;;
29538;SDS011;16482;51.046;4.498;2023-12-29T01:19:14;6.25;;;2.08;;
29538;SDS011;16482;51.046;4.498;2023-12-29T01:21:51;6.82;;;2.25;;
29538;SDS011;16482;51.046;4.498;2023-12-29T01:24:19;5.90;;;1.90;;
29538;SDS011;16482;51.046;4.498;2023-12-29T01:26:45;4.97;;;2.10;;
29538;SDS011;16482;51.046;4.498;2023-12-29T01:29:21;3.67;;;1.60;;
29538;SDS011;16482;51.046;4.498;2023-12-29T01:31:57;5.60;;;2.13;;
29538;SDS011;16482;51.046;4.498;2023-12-29T01:34:40;4.75;;;1.60;;
29538;SDS011;16482;51.046;4.498;2023-12-29T01:37:09;4.75;;;1.90;;
29538;SDS011;16482;51.046;4.498;2023-12-29T01:39:42;6.75;;;2.00;;
29538;SDS011;16482;51.046;4.498;2023-12-29T01:42:08;4.93;;;1.77;;
29538;SDS011;16482;51.046;4.498;2023-12-29T01:44:43;5.18;;;1.75;;
29538;SDS011;16482;51.046;4.498;2023-12-29T01:47:19;4.15;;;1.73;;
29538;SDS011;16482;51.046;4.498;2023-12-29T01:49:49;3.70;;;1.67;;
29538;SDS011;16482;51.046;4.498;2023-12-29T01:52:18;5.18;;;1.90;;
29538;SDS011;16482;51.046;4.498;2023-12-29T01:54:55;4.28;;;1.80;;
29538;SDS011;16482;51.046;4.498;2023-12-29T01:57:21;6.03;;;1.90;;
29538;SDS011;16482;51.046;4.498;2023-12-29T01:59:47;7.70;;;1.95;;
29538;SDS011;16482;51.046;4.498;2023-12-29T02:02:14;5.95;;;2.15;;
29538;SDS011;16482;51.046;4.498;2023-12-29T02:04:50;6.43;;;1.77;;
29538;SDS011;16482;51.046;4.498;2023-12-29T02:07:27;5.28;;;2.00;;
29538;SDS011;16482;51.046;4.498;2023-12-29T02:09:56;6.20;;;1.83;;
29538;SDS011;16482;51.046;4.498;2023-12-29T02:12:33;4.95;;;1.80;;
29538;SDS011;16482;51.046;4.498;2023-12-29T02:15:01;6.35;;;1.77;;
29538;SDS011;16482;51.046;4.498;2023-12-29T02:17:45;5.60;;;1.90;;
29538;SDS011;16482;51.046;4.498;2023-12-29T02:20:28;4.95;;;1.67;;
29538;SDS011;16482;51.046;4.498;2023-12-29T02:22:58;4.60;;;1.60;;
29538;SDS011;16482;51.046;4.498;2023-12-29T02:25:33;5.07;;;1.90;;
29538;SDS011;16482;51.046;4.498;2023-12-29T02:30:29;4.90;;;1.80;;
29538;SDS011;16482;51.046;4.498;2023-12-29T02:33:24;4.72;;;1.98;;
29538;SDS011;16482;51.046;4.498;2023-12-29T02:38:27;3.72;;;1.65;;
29538;SDS011;16482;51.046;4.498;2023-12-29T02:41:03;6.07;;;2.08;;
29538;SDS011;16482;51.046;4.498;2023-12-29T02:43:31;5.30;;;1.90;;
29538;SDS011;16482;51.046;4.498;2023-12-29T02:46:00;5.43;;;1.98;;
29538;SDS011;16482;51.046;4.498;2023-12-29T02:48:26;6.50;;;1.98;;
29538;SDS011;16482;51.046;4.498;2023-12-29T02:50:55;4.07;;;1.60;;
29538;SDS011;16482;51.046;4.498;2023-12-29T02:53:23;5.70;;;1.92;;
29538;SDS011;16482;51.046;4.498;2023-12-29T02:55:49;4.78;;;1.70;;
29538;SDS011;16482;51.046;4.498;2023-12-29T02:58:24;4.57;;;1.50;;
29538;SDS011;16482;51.046;4.498;2023-12-29T03:00:59;5.32;;;1.67;;
29538;SDS011;16482;51.046;4.498;2023-12-29T03:03:35;7.13;;;1.88;;
29538;SDS011;16482;51.046;4.498;2023-12-29T03:06:14;4.75;;;2.08;;
29538;SDS011;16482;51.046;4.498;2023-12-29T03:08:48;4.75;;;1.83;;
29538;SDS011;16482;51.046;4.498;2023-12-29T03:11:24;6.28;;;1.77;;
29538;SDS011;16482;51.046;4.498;2023-12-29T03:14:00;5.65;;;2.03;;
29538;SDS011;16482;51.046;4.498;2023-12-29T03:16:36;3.30;;;1.55;;
29538;SDS011;16482;51.046;4.498;2023-12-29T03:19:05;6.40;;;2.00;;
29538;SDS011;16482;51.046;4.498;2023-12-29T03:21:40;4.50;;;1.73;;
29538;SDS011;16482;51.046;4.498;2023-12-29T03:24:15;5.35;;;2.00;;
29538;SDS011;16482;51.046;4.498;2023-12-29T03:26:41;5.43;;;1.65;;
29538;SDS011;16482;51.046;4.498;2023-12-29T03:29:07;4.45;;;1.52;;
29538;SDS011;16482;51.046;4.498;2023-12-29T03:31:35;5.78;;;1.85;;
29538;SDS011;16482;51.046;4.498;2023-12-29T03:34:11;6.47;;;2.13;;
29538;SDS011;16482;51.046;4.498;2023-12-29T03:36:37;4.63;;;1.77;;
29538;SDS011;16482;51.046;4.498;2023-12-29T03:39:12;5.63;;;1.83;;
29538;SDS011;16482;51.046;4.498;2023-12-29T03:41:38;3.83;;;1.77;;
29538;SDS011;16482;51.046;4.498;2023-12-29T03:44:07;6.78;;;2.20;;
29538;SDS011;16482;51.046;4.498;2023-12-29T03:46:43;4.78;;;1.90;;
29538;SDS011;16482;51.046;4.498;2023-12-29T03:49:09;5.55;;;1.92;;
29538;SDS011;16482;51.046;4.498;2023-12-29T03:51:47;5.35;;;1.90;;
29538;SDS011;16482;51.046;4.498;2023-12-29T03:54:12;5.85;;;2.47;;
29538;SDS011;16482;51.046;4.498;2023-12-29T03:56:49;5.75;;;2.20;;
29538;SDS011;16482;51.046;4.498;2023-12-29T03:59:14;4.57;;;1.90;;
29538;SDS011;16482;51.046;4.498;2023-12-29T04:01:43;5.72;;;1.80;;
29538;SDS011;16482;51.046;4.498;2023-12-29T04:04:09;4.38;;;1.67;;
29538;SDS011;16482;51.046;4.498;2023-12-29T04:06:45;4.25;;;1.63;;
29538;SDS011;16482;51.046;4.498;2023-12-29T04:09:11;6.25;;;2.13;;
29538;SDS011;16482;51.046;4.498;2023-12-29T04:11:37;5.32;;;1.77;;
29538;SDS011;16482;51.046;4.498;2023-12-29T04:14:12;5.28;;;1.73;;
29538;SDS011;16482;51.046;4.498;2023-12-29T04:16:48;5.05;;;1.90;;
29538;SDS011;16482;51.046;4.498;2023-12-29T04:19:24;4.40;;;1.70;;
29538;SDS011;16482;51.046;4.498;2023-12-29T04:21:50;4.55;;;1.67;;
29538;SDS011;16482;51.046;4.498;2023-12-29T04:24:26;4.50;;;1.80;;
29538;SDS011;16482;51.046;4.498;2023-12-29T04:27:11;6.20;;;2.13;;
29538;SDS011;16482;51.046;4.498;2023-12-29T04:29:46;5.28;;;1.90;;
29538;SDS011;16482;51.046;4.498;2023-12-29T04:32:21;4.75;;;1.52;;
29538;SDS011;16482;51.046;4.498;2023-12-29T04:34:50;5.82;;;1.77;;
29538;SDS011;16482;51.046;4.498;2023-12-29T04:37:26;6.75;;;2.30;;
29538;SDS011;16482;51.046;4.498;2023-12-29T04:39:52;7.15;;;1.63;;
29538;SDS011;16482;51.046;4.498;2023-12-29T04:42:21;3.30;;;1.73;;
29538;SDS011;16482;51.046;4.498;2023-12-29T04:44:46;5.75;;;2.08;;
29538;SDS011;16482;51.046;4.498;2023-12-29T04:47:23;5.70;;;2.10;;
29538;SDS011;16482;51.046;4.498;2023-12-29T04:49:48;4.00;;;1.83;;
29538;SDS011;16482;51.046;4.498;2023-12-29T04:52:17;5.97;;;2.05;;
29538;SDS011;16482;51.046;4.498;2023-12-29T04:54:46;4.30;;;1.73;;
29538;SDS011;16482;51.046;4.498;2023-12-29T04:57:12;5.75;;;2.00;;
29538;SDS011;16482;51.046;4.498;2023-12-29T04:59:38;4.40;;;1.55;;
29538;SDS011;16482;51.046;4.498;2023-12-29T05:02:04;5.78;;;1.75;;
29538;SDS011;16482;51.046;4.498;2023-12-29T05:04:39;5.18;;;1.55;;
29538;SDS011;16482;51.046;4.498;2023-12-29T05:07:15;5.15;;;2.00;;
29538;SDS011;16482;51.046;4.498;2023-12-29T05:09:51;4.22;;;1.80;;
29538;SDS011;16482;51.046;4.498;2023-12-29T05:12:27;5.43;;;2.08;;
29538;SDS011;16482;51.046;4.498;2023-12-29T05:14:55;6.13;;;1.83;;
29538;SDS011;16482;51.046;4.498;2023-12-29T05:17:24;6.45;;;2.05;;
29538;SDS011;16482;51.046;4.498;2023-12-29T05:19:49;4.20;;;2.00;;
29538;SDS011;16482;51.046;4.498;2023-12-29T05:22:26;4.93;;;1.80;;
29538;SDS011;16482;51.046;4.498;2023-12-29T05:24:59;4.55;;;1.80;;
29538;SDS011;16482;51.046;4.498;2023-12-29T05:27:25;4.20;;;1.60;;
29538;SDS011;16482;51.046;4.498;2023-12-29T05:29:52;5.47;;;2.00;;
29538;SDS011;16482;51.046;4.498;2023-12-29T05:32:28;4.43;;;1.85;;
29538;SDS011;16482;51.046;4.498;2023-12-29T05:34:53;5.05;;;1.70;;
29538;SDS011;16482;51.046;4.498;2023-12-29T05:37:19;5.20;;;1.85;;
29538;SDS011;16482;51.046;4.498;2023-12-29T05:39:48;5.25;;;1.63;;
29538;SDS011;16482;51.046;4.498;2023-12-29T05:42:16;5.13;;;1.80;;
29538;SDS011;16482;51.046;4.498;2023-12-29T05:44:49;5.00;;;1.95;;
29538;SDS011;16482;51.046;4.498;2023-12-29T05:47:18;5.80;;;1.88;;
29538;SDS011;16482;51.046;4.498;2023-12-29T05:49:47;4.72;;;1.95;;
29538;SDS011;16482;51.046;4.498;2023-12-29T05:52:13;7.22;;;2.05;;
29538;SDS011;16482;51.046;4.498;2023-12-29T05:54:49;6.07;;;1.55;;
29538;SDS011;16482;51.046;4.498;2023-12-29T05:57:15;4.53;;;1.75;;
29538;SDS011;16482;51.046;4.498;2023-12-29T05:59:41;5.85;;;1.60;;
29538;SDS011;16482;51.046;4.498;2023-12-29T06:02:10;5.20;;;1.80;;
29538;SDS011;16482;51.046;4.498;2023-12-29T06:09:37;5.50;;;1.67;;
29538;SDS011;16482;51.046;4.498;2023-12-29T06:12:05;5.07;;;1.90;;
29538;SDS011;16482;51.046;4.498;2023-12-29T06:14:42;4.82;;;2.00;;
29538;SDS011;16482;51.046;4.498;2023-12-29T06:17:08;5.28;;;1.77;;
29538;SDS011;16482;51.046;4.498;2023-12-29T06:19:39;4.78;;;1.70;;
29538;SDS011;16482;51.046;4.498;2023-12-29T06:22:05;5.00;;;1.48;;
29538;SDS011;16482;51.046;4.498;2023-12-29T06:24:41;6.55;;;2.15;;
29538;SDS011;16482;51.046;4.498;2023-12-29T06:27:09;5.07;;;1.90;;
29538;SDS011;16482;51.046;4.498;2023-12-29T06:29:45;6.10;;;2.10;;
29538;SDS011;16482;51.046;4.498;2023-12-29T06:32:11;5.90;;;2.25;;
29538;SDS011;16482;51.046;4.498;2023-12-29T06:34:47;3.40;;;1.40;;
29538;SDS011;16482;51.046;4.498;2023-12-29T06:37:23;3.88;;;1.70;;
29538;SDS011;16482;51.046;4.498;2023-12-29T06:39:52;4.60;;;2.10;;
29538;SDS011;16482;51.046;4.498;2023-12-29T06:42:29;3.58;;;1.52;;
29538;SDS011;16482;51.046;4.498;2023-12-29T06:44:57;4.47;;;1.48;;
29538;SDS011;16482;51.046;4.498;2023-12-29T06:47:33;4.88;;;1.98;;
29538;SDS011;16482;51.046;4.498;2023-12-29T06:49:59;5.15;;;1.73;;
29538;SDS011;16482;51.046;4.498;2023-12-29T06:52:28;3.88;;;1.60;;
29538;SDS011;16482;51.046;4.498;2023-12-29T06:54:59;5.03;;;1.90;;
29538;SDS011;16482;51.046;4.498;2023-12-29T06:57:32;5.35;;;1.50;;
29538;SDS011;16482;51.046;4.498;2023-12-29T07:00:07;3.80;;;1.60;;
29538;SDS011;16482;51.046;4.498;2023-12-29T07:02:44;4.07;;;1.50;;
29538;SDS011;16482;51.046;4.498;2023-12-29T07:05:22;3.33;;;1.20;;
29538;SDS011;16482;51.046;4.498;2023-12-29T07:07:58;4.50;;;1.50;;
29538;SDS011;16482;51.046;4.498;2023-12-29T07:10:27;5.75;;;1.85;;
29538;SDS011;16482;51.046;4.498;2023-12-29T07:13:05;2.10;;;1.40;;
29538;SDS011;16482;51.046;4.498;2023-12-29T07:15:31;2.92;;;1.40;;
29538;SDS011;16482;51.046;4.498;2023-12-29T07:18:07;4.50;;;1.50;;
29538;SDS011;16482;51.046;4.498;2023-12-29T07:20:36;4.35;;;1.60;;
29538;SDS011;16482;51.046;4.498;2023-12-29T07:23:12;4.57;;;1.88;;
29538;SDS011;16482;51.046;4.498;2023-12-29T07:25:38;4.65;;;1.58;;
29538;SDS011;16482;51.046;4.498;2023-12-29T07:28:04;2.10;;;1.30;;
29538;SDS011;16482;51.046;4.498;2023-12-29T07:30:33;3.22;;;1.40;;
29538;SDS011;16482;51.046;4.498;2023-12-29T07:32:59;3.83;;;1.40;;
29538;SDS011;16482;51.046;4.498;2023-12-29T07:35:32;3.67;;;1.35;;
29538;SDS011;16482;51.046;4.498;2023-12-29T07:38:00;3.35;;;1.35;;
29538;SDS011;16482;51.046;4.498;2023-12-29T07:40:29;3.63;;;1.35;;
29538;SDS011;16482;51.046;4.498;2023-12-29T07:43:00;3.40;;;1.38;;
29538;SDS011;16482;51.046;4.498;2023-12-29T07:45:33;3.60;;;1.30;;
29538;SDS011;16482;51.046;4.498;2023-12-29T07:48:08;3.22;;;1.30;;
29538;SDS011;16482;51.046;4.498;2023-12-29T07:50:34;4.40;;;1.38;;
29538;SDS011;16482;51.046;4.498;2023-12-29T07:53:03;3.25;;;1.27;;
29538;SDS011;16482;51.046;4.498;2023-12-29T07:55:31;3.17;;;1.27;;
29538;SDS011;16482;51.046;4.498;2023-12-29T07:57:59;2.13;;;1.08;;
29538;SDS011;16482;51.046;4.498;2023-12-29T08:00:25;2.15;;;1.10;;
29538;SDS011;16482;51.046;4.498;2023-12-29T08:02:51;3.22;;;1.23;;
29538;SDS011;16482;51.046;4.498;2023-12-29T08:05:30;3.67;;;1.50;;
29538;SDS011;16482;51.046;4.498;2023-12-29T08:08:05;3.10;;;1.45;;
29538;SDS011;16482;51.046;4.498;2023-12-29T08:10:41;3.28;;;1.20;;
29538;SDS011;16482;51.046;4.498;2023-12-29T08:13:07;2.72;;;1.20;;
29538;SDS011;16482;51.046;4.498;2023-12-29T08:15:34;2.38;;;1.13;;
29538;SDS011;16482;51.046;4.498;2023-12-29T08:18:03;3.10;;;1.05;;
29538;SDS011;16482;51.046;4.498;2023-12-29T08:20:29;3.03;;;1.20;;
29538;SDS011;16482;51.046;4.498;2023-12-29T08:22:58;4.22;;;1.33;;
29538;SDS011;16482;51.046;4.498;2023-12-29T08:25:27;2.28;;;1.20;;
29538;SDS011;16482;51.046;4.498;2023-12-29T08:28:00;3.97;;;1.23;;
29538;SDS011;16482;51.046;4.498;2023-12-29T08:30:29;2.15;;;1.00;;
29538;SDS011;16482;51.046;4.498;2023-12-29T08:32:55;3.53;;;1.20;;
29538;SDS011;16482;51.046;4.498;2023-12-29T08:35:31;3.03;;;1.23;;
29538;SDS011;16482;51.046;4.498;2023-12-29T08:37:57;2.70;;;1.27;;
29538;SDS011;16482;51.046;4.498;2023-12-29T08:40:25;2.47;;;1.23;;
29538;SDS011;16482;51.046;4.498;2023-12-29T08:42:51;4.95;;;1.30;;
29538;SDS011;16482;51.046;4.498;2023-12-29T08:45:30;2.03;;;1.00;;
29538;SDS011;16482;51.046;4.498;2023-12-29T08:48:06;3.28;;;1.13;;
29538;SDS011;16482;51.046;4.498;2023-12-29T08:50:42;2.72;;;1.00;;
29538;SDS011;16482;51.046;4.498;2023-12-29T08:53:11;3.00;;;1.25;;
29538;SDS011;16482;51.046;4.498;2023-12-29T08:55:40;2.20;;;1.08;;
29538;SDS011;16482;51.046;4.498;2023-12-29T08:58:06;1.88;;;1.00;;
29538;SDS011;16482;51.046;4.498;2023-12-29T09:00:42;3.88;;;1.25;;
29538;SDS011;16482;51.046;4.498;2023-12-29T09:03:10;4.55;;;1.38;;
29538;SDS011;16482;51.046;4.498;2023-12-29T09:05:36;17.58;;;1.27;;
29538;SDS011;16482;51.046;4.498;2023-12-29T09:08:12;2.15;;;0.77;;
29538;SDS011;16482;51.046;4.498;2023-12-29T09:10:45;9.07;;;1.20;;
29538;SDS011;16482;51.046;4.498;2023-12-29T09:13:14;3.17;;;0.98;;
29538;SDS011;16482;51.046;4.498;2023-12-29T09:15:40;2.97;;;0.93;;
29538;SDS011;16482;51.046;4.498;2023-12-29T09:18:06;3.15;;;1.15;;
29538;SDS011;16482;51.046;4.498;2023-12-29T09:20:32;3.10;;;1.10;;
29538;SDS011;16482;51.046;4.498;2023-12-29T09:23:08;3.28;;;1.30;;
29538;SDS011;16482;51.046;4.498;2023-12-29T09:25:36;3.17;;;1.17;;
29538;SDS011;16482;51.046;4.498;2023-12-29T09:28:05;4.45;;;1.20;;
29538;SDS011;16482;51.046;4.498;2023-12-29T09:30:34;2.45;;;0.93;;
29538;SDS011;16482;51.046;4.498;2023-12-29T09:33:00;2.92;;;0.93;;
29538;SDS011;16482;51.046;4.498;2023-12-29T09:35:38;2.78;;;1.15;;
29538;SDS011;16482;51.046;4.498;2023-12-29T09:38:04;3.85;;;1.33;;
29538;SDS011;16482;51.046;4.498;2023-12-29T09:40:39;2.40;;;1.00;;
29538;SDS011;16482;51.046;4.498;2023-12-29T09:43:08;4.53;;;1.52;;
29538;SDS011;16482;51.046;4.498;2023-12-29T09:45:44;4.00;;;1.00;;
29538;SDS011;16482;51.046;4.498;2023-12-29T09:48:14;2.85;;;0.95;;
29538;SDS011;16482;51.046;4.498;2023-12-29T09:50:51;3.50;;;1.42;;
29538;SDS011;16482;51.046;4.498;2023-12-29T09:53:21;4.78;;;1.50;;
29538;SDS011;16482;51.046;4.498;2023-12-29T09:55:50;4.03;;;1.15;;
29538;SDS011;16482;51.046;4.498;2023-12-29T09:58:19;3.75;;;1.20;;
29538;SDS011;16482;51.046;4.498;2023-12-29T10:00:57;4.18;;;1.17;;
29538;SDS011;16482;51.046;4.498;2023-12-29T10:03:23;11.00;;;1.35;;
29538;SDS011;16482;51.046;4.498;2023-12-29T10:05:50;2.15;;;1.08;;
29538;SDS011;16482;51.046;4.498;2023-12-29T10:08:19;2.80;;;0.93;;
29538;SDS011;16482;51.046;4.498;2023-12-29T10:10:48;5.20;;;1.15;;
29538;SDS011;16482;51.046;4.498;2023-12-29T10:13:16;3.83;;;0.98;;
29538;SDS011;16482;51.046;4.498;2023-12-29T10:18:58;3.13;;;1.10;;
29538;SDS011;16482;51.046;4.498;2023-12-29T10:24:17;2.13;;;1.00;;
29538;SDS011;16482;51.046;4.498;2023-12-29T10:26:56;3.63;;;1.08;;
29538;SDS011;16482;51.046;4.498;2023-12-29T10:29:24;2.42;;;0.82;;
29538;SDS011;16482;51.046;4.498;2023-12-29T10:31:52;1.75;;;0.80;;
29538;SDS011;16482;51.046;4.498;2023-12-29T10:34:28;2.10;;;0.90;;
29538;SDS011;16482;51.046;4.498;2023-12-29T10:36:57;2.60;;;0.90;;
29538;SDS011;16482;51.046;4.498;2023-12-29T10:39:55;1.40;;;0.82;;
29538;SDS011;16482;51.046;4.498;2023-12-29T10:42:21;3.38;;;1.10;;
29538;SDS011;16482;51.046;4.498;2023-12-29T10:44:47;2.78;;;1.00;;
29538;SDS011;16482;51.046;4.498;2023-12-29T10:47:29;2.47;;;0.95;;
29538;SDS011;16482;51.046;4.498;2023-12-29T10:49:58;3.05;;;0.93;;
29538;SDS011;16482;51.046;4.498;2023-12-29T10:52:33;4.97;;;1.20;;
29538;SDS011;16482;51.046;4.498;2023-12-29T10:55:11;2.40;;;1.13;;
29538;SDS011;16482;51.046;4.498;2023-12-29T10:57:49;2.63;;;0.80;;
29538;SDS011;16482;51.046;4.498;2023-12-29T11:00:29;5.63;;;1.33;;
29538;SDS011;16482;51.046;4.498;2023-12-29T11:02:58;2.53;;;0.90;;
29538;SDS011;16482;51.046;4.498;2023-12-29T11:05:33;2.08;;;0.90;;
29538;SDS011;16482;51.046;4.498;2023-12-29T11:07:59;1.73;;;0.80;;
29538;SDS011;16482;51.046;4.498;2023-12-29T11:10:34;3.28;;;1.10;;
29538;SDS011;16482;51.046;4.498;2023-12-29T11:13:03;2.90;;;1.10;;
29538;SDS011;16482;51.046;4.498;2023-12-29T11:15:28;4.10;;;1.10;;
29538;SDS011;16482;51.046;4.498;2023-12-29T11:18:02;2.92;;;1.10;;
29538;SDS011;16482;51.046;4.498;2023-12-29T11:20:32;4.03;;;1.20;;
29538;SDS011;16482;51.046;4.498;2023-12-29T11:23:02;5.80;;;1.00;;
29538;SDS011;16482;51.046;4.498;2023-12-29T11:25:38;2.85;;;1.10;;
29538;SDS011;16482;51.046;4.498;2023-12-29T11:28:15;2.63;;;1.10;;
29538;SDS011;16482;51.046;4.498;2023-12-29T11:30:44;3.03;;;1.20;;
29538;SDS011;16482;51.046;4.498;2023-12-29T11:33:30;3.75;;;1.42;;
29538;SDS011;16482;51.046;4.498;2023-12-29T11:36:17;3.10;;;1.10;;
29538;SDS011;16482;51.046;4.498;2023-12-29T11:41:39;3.50;;;1.23;;
29538;SDS011;16482;51.046;4.498;2023-12-29T11:44:25;2.95;;;1.08;;
29538;SDS011;16482;51.046;4.498;2023-12-29T11:47:12;2.75;;;1.00;;
29538;SDS011;16482;51.046;4.498;2023-12-29T11:50:26;4.85;;;1.27;;
29538;SDS011;16482;51.046;4.498;2023-12-29T11:53:05;6.40;;;1.40;;
29538;SDS011;16482;51.046;4.498;2023-12-29T11:55:41;2.97;;;1.00;;
29538;SDS011;16482;51.046;4.498;2023-12-29T11:58:24;3.70;;;1.27;;
29538;SDS011;16482;51.046;4.498;2023-12-29T12:01:01;2.22;;;0.93;;
29538;SDS011;16482;51.046;4.498;2023-12-29T12:03:28;4.05;;;1.23;;
29538;SDS011;16482;51.046;4.498;2023-12-29T12:05:59;3.25;;;1.10;;
29538;SDS011;16482;51.046;4.498;2023-12-29T12:08:34;2.85;;;1.17;;
29538;SDS011;16482;51.046;4.498;2023-12-29T12:14:01;2.83;;;1.20;;
29538;SDS011;16482;51.046;4.498;2023-12-29T12:19:19;2.78;;;1.25;;
29538;SDS011;16482;51.046;4.498;2023-12-29T12:21:56;1.65;;;0.80;;
29538;SDS011;16482;51.046;4.498;2023-12-29T12:24:33;3.92;;;1.40;;
29538;SDS011;16482;51.046;4.498;2023-12-29T12:27:04;1.95;;;1.13;;
29538;SDS011;16482;51.046;4.498;2023-12-29T12:32:08;2.30;;;0.90;;
29538;SDS011;16482;51.046;4.498;2023-12-29T12:34:40;3.67;;;1.55;;
29538;SDS011;16482;51.046;4.498;2023-12-29T12:37:18;2.25;;;1.15;;
29538;SDS011;16482;51.046;4.498;2023-12-29T12:39:44;2.70;;;1.05;;
29538;SDS011;16482;51.046;4.498;2023-12-29T12:42:10;2.63;;;1.40;;
29538;SDS011;16482;51.046;4.498;2023-12-29T12:44:38;2.80;;;1.33;;
29538;SDS011;16482;51.046;4.498;2023-12-29T12:47:18;2.97;;;1.17;;
29538;SDS011;16482;51.046;4.498;2023-12-29T12:49:56;2.20;;;1.15;;
29538;SDS011;16482;51.046;4.498;2023-12-29T12:52:34;5.57;;;1.48;;
29538;SDS011;16482;51.046;4.498;2023-12-29T12:55:11;3.38;;;1.20;;
29538;SDS011;16482;51.046;4.498;2023-12-29T12:57:39;3.67;;;1.20;;
29538;SDS011;16482;51.046;4.498;2023-12-29T13:00:05;3.63;;;1.20;;
29538;SDS011;16482;51.046;4.498;2023-12-29T13:02:44;2.70;;;0.98;;
29538;SDS011;16482;51.046;4.498;2023-12-29T13:05:11;6.15;;;1.05;;
29538;SDS011;16482;51.046;4.498;2023-12-29T13:07:37;2.78;;;1.23;;
29538;SDS011;16482;51.046;4.498;2023-12-29T13:10:06;2.28;;;1.10;;
29538;SDS011;16482;51.046;4.498;2023-12-29T13:12:34;4.07;;;1.20;;
29538;SDS011;16482;51.046;4.498;2023-12-29T13:15:07;4.38;;;1.27;;
29538;SDS011;16482;51.046;4.498;2023-12-29T13:17:33;6.40;;;1.10;;
29538;SDS011;16482;51.046;4.498;2023-12-29T13:20:00;3.55;;;1.10;;
29538;SDS011;16482;51.046;4.498;2023-12-29T13:22:36;3.15;;;1.20;;
29538;SDS011;16482;51.046;4.498;2023-12-29T13:25:03;7.38;;;1.55;;
29538;SDS011;16482;51.046;4.498;2023-12-29T13:27:33;6.82;;;1.67;;
29538;SDS011;16482;51.046;4.498;2023-12-29T13:30:01;4.43;;;1.35;;
29538;SDS011;16482;51.046;4.498;2023-12-29T13:32:30;4.63;;;1.05;;
29538;SDS011;16482;51.046;4.498;2023-12-29T13:35:05;11.10;;;2.15;;
29538;SDS011;16482;51.046;4.498;2023-12-29T13:43:06;4.00;;;1.33;;
29538;SDS011;16482;51.046;4.498;2023-12-29T13:45:35;5.22;;;1.25;;
29538;SDS011;16482;51.046;4.498;2023-12-29T13:48:02;6.22;;;1.20;;
29538;SDS011;16482;51.046;4.498;2023-12-29T13:50:37;4.88;;;1.20;;
29538;SDS011;16482;51.046;4.498;2023-12-29T13:53:06;4.38;;;1.38;;
29538;SDS011;16482;51.046;4.498;2023-12-29T13:55:34;3.83;;;1.30;;
29538;SDS011;16482;51.046;4.498;2023-12-29T13:58:00;5.07;;;1.23;;
29538;SDS011;16482;51.046;4.498;2023-12-29T14:00:36;7.05;;;1.42;;
29538;SDS011;16482;51.046;4.498;2023-12-29T14:03:05;7.95;;;1.40;;
29538;SDS011;16482;51.046;4.498;2023-12-29T14:08:09;3.97;;;1.33;;
29538;SDS011;16482;51.046;4.498;2023-12-29T14:10:45;2.58;;;1.17;;
29538;SDS011;16482;51.046;4.498;2023-12-29T14:13:14;4.25;;;1.40;;
29538;SDS011;16482;51.046;4.498;2023-12-29T14:15:42;2.58;;;1.00;;
29538;SDS011;16482;51.046;4.498;2023-12-29T14:20:48;3.83;;;1.17;;
29538;SDS011;16482;51.046;4.498;2023-12-29T14:23:13;2.25;;;1.10;;
29538;SDS011;16482;51.046;4.498;2023-12-29T14:25:43;1.83;;;0.90;;
29538;SDS011;16482;51.046;4.498;2023-12-29T14:28:17;3.05;;;0.98;;
29538;SDS011;16482;51.046;4.498;2023-12-29T14:30:47;6.55;;;0.98;;
29538;SDS011;16482;51.046;4.498;2023-12-29T14:33:13;3.88;;;1.15;;
29538;SDS011;16482;51.046;4.498;2023-12-29T14:35:42;1.90;;;1.00;;
29538;SDS011;16482;51.046;4.498;2023-12-29T14:38:08;4.30;;;1.17;;
29538;SDS011;16482;51.046;4.498;2023-12-29T14:40:36;2.88;;;1.00;;
29538;SDS011;16482;51.046;4.498;2023-12-29T14:43:03;4.40;;;1.20;;
29538;SDS011;16482;51.046;4.498;2023-12-29T14:45:32;3.35;;;1.13;;
29538;SDS011;16482;51.046;4.498;2023-12-29T14:48:08;2.05;;;1.00;;
29538;SDS011;16482;51.046;4.498;2023-12-29T14:50:35;2.15;;;0.90;;
29538;SDS011;16482;51.046;4.498;2023-12-29T14:53:10;1.83;;;1.00;;
29538;SDS011;16482;51.046;4.498;2023-12-29T14:55:39;3.08;;;1.08;;
29538;SDS011;16482;51.046;4.498;2023-12-29T14:58:05;2.53;;;1.00;;
29538;SDS011;16482;51.046;4.498;2023-12-29T15:00:43;3.67;;;1.33;;
29538;SDS011;16482;51.046;4.498;2023-12-29T15:03:11;2.72;;;1.00;;
29538;SDS011;16482;51.046;4.498;2023-12-29T15:05:48;4.38;;;1.10;;
29538;SDS011;16482;51.046;4.498;2023-12-29T15:08:13;1.42;;;0.90;;
29538;SDS011;16482;51.046;4.498;2023-12-29T15:10:43;1.55;;;0.77;;
29538;SDS011;16482;51.046;4.498;2023-12-29T15:13:09;3.10;;;0.90;;
29538;SDS011;16482;51.046;4.498;2023-12-29T15:15:35;1.95;;;0.90;;
29538;SDS011;16482;51.046;4.498;2023-12-29T15:18:09;1.95;;;0.82;;
29538;SDS011;16482;51.046;4.498;2023-12-29T15:20:44;1.95;;;0.90;;
29538;SDS011;16482;51.046;4.498;2023-12-29T15:23:20;2.30;;;1.15;;
29538;SDS011;16482;51.046;4.498;2023-12-29T15:25:53;3.10;;;1.10;;
29538;SDS011;16482;51.046;4.498;2023-12-29T15:28:19;4.00;;;1.00;;
29538;SDS011;16482;51.046;4.498;2023-12-29T15:30:48;3.60;;;1.17;;
29538;SDS011;16482;51.046;4.498;2023-12-29T15:33:15;2.08;;;1.00;;
29538;SDS011;16482;51.046;4.498;2023-12-29T15:35:51;3.88;;;1.10;;
29538;SDS011;16482;51.046;4.498;2023-12-29T15:38:17;2.20;;;0.98;;
29538;SDS011;16482;51.046;4.498;2023-12-29T15:40:53;2.92;;;1.00;;
29538;SDS011;16482;51.046;4.498;2023-12-29T15:43:21;1.27;;;0.70;;
29538;SDS011;16482;51.046;4.498;2023-12-29T15:45:49;2.20;;;1.17;;
29538;SDS011;16482;51.046;4.498;2023-12-29T15:48:15;3.03;;;0.90;;
29538;SDS011;16482;51.046;4.498;2023-12-29T15:50:44;1.88;;;0.80;;